sensor_id;sensor_type;location;lat;lon;timestamp;P1;durP1;ratioP1;P2;durP2;ratioP2
20637;SDS011;10478;49.004;8.470;2024-02-21T00:00:36;6.72;;;3.08;;
20637;SDS011;10478;49.004;8.470;2024-02-21T00:03:03;9.05;;;4.57;;
20637;SDS011;10478;49.004;8.470;2024-02-21T00:05:29;7.88;;;3.15;;
20637;SDS011;10478;49.004;8.470;2024-02-21T00:07:54;7.43;;;2.90;;
20637;SDS011;10478;49.004;8.470;2024-02-21T00:10:20;7.25;;;3.45;;
20637;SDS011;10478;49.004;8.470;2024-02-21T00:12:45;8.57;;;2.80;;
20637;SDS011;10478;49.004;8.470;2024-02-21T00:15:11;5.45;;;3.10;;
20637;SDS011;10478;49.004;8.470;2024-02-21T00:17:36;9.48;;;3.13;;
20637;SDS011;10478;49.004;8.470;2024-02-21T00:20:02;7.20;;;3.50;;
20637;SDS011;10478;49.004;8.470;2024-02-21T00:22:27;10.88;;;3.03;;
20637;SDS011;10478;49.004;8.470;2024-02-21T00:24:58;6.07;;;2.75;;
20637;SDS011;10478;49.004;8.470;2024-02-21T00:27:24;7.72;;;3.08;;
20637;SDS011;10478;49.004;8.470;2024-02-21T00:29:49;9.77;;;3.22;;
20637;SDS011;10478;49.004;8.470;2024-02-21T00:32:15;5.07;;;2.88;;
20637;SDS011;10478;49.004;8.470;2024-02-21T00:34:40;5.82;;;2.42;;
20637;SDS011;10478;49.004;8.470;2024-02-21T00:37:06;6.35;;;2.65;;
20637;SDS011;10478;49.004;8.470;2024-02-21T00:39:31;7.30;;;2.88;;
20637;SDS011;10478;49.004;8.470;2024-02-21T00:41:57;10.15;;;2.90;;
20637;SDS011;10478;49.004;8.470;2024-02-21T00:44:22;16.17;;;2.90;;
20637;SDS011;10478;49.004;8.470;2024-02-21T00:46:47;10.07;;;3.15;;
20637;SDS011;10478;49.004;8.470;2024-02-21T00:49:13;9.40;;;3.33;;
20637;SDS011;10478;49.004;8.470;2024-02-21T00:51:38;8.13;;;3.03;;
20637;SDS011;10478;49.004;8.470;2024-02-21T00:54:03;8.25;;;2.72;;
20637;SDS011;10478;49.004;8.470;2024-02-21T00:56:28;8.60;;;3.08;;
20637;SDS011;10478;49.004;8.470;2024-02-21T00:58:55;8.57;;;3.25;;
20637;SDS011;10478;49.004;8.470;2024-02-21T01:01:21;6.50;;;2.38;;
20637;SDS011;10478;49.004;8.470;2024-02-21T01:03:49;10.38;;;3.33;;
20637;SDS011;10478;49.004;8.470;2024-02-21T01:06:14;9.07;;;3.00;;
20637;SDS011;10478;49.004;8.470;2024-02-21T01:08:40;7.63;;;2.95;;
20637;SDS011;10478;49.004;8.470;2024-02-21T01:11:05;6.95;;;2.88;;
20637;SDS011;10478;49.004;8.470;2024-02-21T01:13:30;6.05;;;2.55;;
20637;SDS011;10478;49.004;8.470;2024-02-21T01:15:56;14.98;;;3.80;;
20637;SDS011;10478;49.004;8.470;2024-02-21T01:18:21;4.60;;;2.08;;
20637;SDS011;10478;49.004;8.470;2024-02-21T01:20:46;9.27;;;2.95;;
20637;SDS011;10478;49.004;8.470;2024-02-21T01:23:12;5.13;;;2.10;;
20637;SDS011;10478;49.004;8.470;2024-02-21T01:25:37;9.23;;;2.47;;
20637;SDS011;10478;49.004;8.470;2024-02-21T01:28:02;12.82;;;2.65;;
20637;SDS011;10478;49.004;8.470;2024-02-21T01:30:28;9.25;;;2.88;;
20637;SDS011;10478;49.004;8.470;2024-02-21T01:32:53;6.68;;;2.70;;
20637;SDS011;10478;49.004;8.470;2024-02-21T01:35:18;5.72;;;2.65;;
20637;SDS011;10478;49.004;8.470;2024-02-21T01:37:44;6.47;;;2.10;;
20637;SDS011;10478;49.004;8.470;2024-02-21T01:40:09;4.85;;;2.22;;
20637;SDS011;10478;49.004;8.470;2024-02-21T01:42:38;6.10;;;2.47;;
20637;SDS011;10478;49.004;8.470;2024-02-21T01:45:05;6.78;;;2.10;;
20637;SDS011;10478;49.004;8.470;2024-02-21T01:47:31;3.30;;;1.90;;
20637;SDS011;10478;49.004;8.470;2024-02-21T01:49:56;6.68;;;2.90;;
20637;SDS011;10478;49.004;8.470;2024-02-21T01:52:21;4.80;;;2.35;;
20637;SDS011;10478;49.004;8.470;2024-02-21T01:54:47;4.57;;;1.83;;
20637;SDS011;10478;49.004;8.470;2024-02-21T01:57:13;5.88;;;1.92;;
20637;SDS011;10478;49.004;8.470;2024-02-21T01:59:38;9.55;;;2.70;;
20637;SDS011;10478;49.004;8.470;2024-02-21T02:02:03;9.07;;;2.67;;
20637;SDS011;10478;49.004;8.470;2024-02-21T02:04:29;8.73;;;2.17;;
20637;SDS011;10478;49.004;8.470;2024-02-21T02:06:54;6.65;;;2.42;;
20637;SDS011;10478;49.004;8.470;2024-02-21T02:09:20;7.60;;;2.67;;
20637;SDS011;10478;49.004;8.470;2024-02-21T02:11:46;9.85;;;2.60;;
20637;SDS011;10478;49.004;8.470;2024-02-21T02:14:11;5.38;;;1.92;;
20637;SDS011;10478;49.004;8.470;2024-02-21T02:16:37;6.30;;;2.38;;
20637;SDS011;10478;49.004;8.470;2024-02-21T02:19:02;4.55;;;2.10;;
20637;SDS011;10478;49.004;8.470;2024-02-21T02:21:32;3.45;;;1.90;;
20637;SDS011;10478;49.004;8.470;2024-02-21T02:23:59;6.70;;;2.53;;
20637;SDS011;10478;49.004;8.470;2024-02-21T02:26:25;4.18;;;2.20;;
20637;SDS011;10478;49.004;8.470;2024-02-21T02:28:50;10.85;;;3.17;;
20637;SDS011;10478;49.004;8.470;2024-02-21T02:31:16;4.18;;;1.73;;
20637;SDS011;10478;49.004;8.470;2024-02-21T02:33:44;13.20;;;2.28;;
20637;SDS011;10478;49.004;8.470;2024-02-21T02:36:09;8.75;;;2.25;;
20637;SDS011;10478;49.004;8.470;2024-02-21T02:38:35;5.78;;;2.03;;
20637;SDS011;10478;49.004;8.470;2024-02-21T02:41:00;7.25;;;2.40;;
20637;SDS011;10478;49.004;8.470;2024-02-21T02:43:25;6.25;;;2.90;;
20637;SDS011;10478;49.004;8.470;2024-02-21T02:45:51;10.02;;;2.90;;
20637;SDS011;10478;49.004;8.470;2024-02-21T02:48:16;13.00;;;2.85;;
20637;SDS011;10478;49.004;8.470;2024-02-21T02:50:41;6.80;;;2.17;;
20637;SDS011;10478;49.004;8.470;2024-02-21T02:53:07;5.07;;;2.42;;
20637;SDS011;10478;49.004;8.470;2024-02-21T02:55:32;4.97;;;2.40;;
20637;SDS011;10478;49.004;8.470;2024-02-21T02:57:58;6.97;;;3.05;;
20637;SDS011;10478;49.004;8.470;2024-02-21T03:00:23;7.13;;;2.40;;
20637;SDS011;10478;49.004;8.470;2024-02-21T03:02:49;9.05;;;2.85;;
20637;SDS011;10478;49.004;8.470;2024-02-21T03:05:18;6.95;;;2.47;;
20637;SDS011;10478;49.004;8.470;2024-02-21T03:07:44;5.55;;;1.85;;
20637;SDS011;10478;49.004;8.470;2024-02-21T03:10:10;8.18;;;2.50;;
20637;SDS011;10478;49.004;8.470;2024-02-21T03:12:36;11.25;;;2.58;;
20637;SDS011;10478;49.004;8.470;2024-02-21T03:15:02;10.52;;;2.72;;
20637;SDS011;10478;49.004;8.470;2024-02-21T03:17:27;6.45;;;2.58;;
20637;SDS011;10478;49.004;8.470;2024-02-21T03:19:53;6.65;;;2.90;;
20637;SDS011;10478;49.004;8.470;2024-02-21T03:22:20;8.30;;;2.58;;
20637;SDS011;10478;49.004;8.470;2024-02-21T03:24:45;8.85;;;2.65;;
20637;SDS011;10478;49.004;8.470;2024-02-21T03:27:10;7.32;;;2.45;;
20637;SDS011;10478;49.004;8.470;2024-02-21T03:29:36;8.18;;;2.70;;
20637;SDS011;10478;49.004;8.470;2024-02-21T03:32:01;6.07;;;2.40;;
20637;SDS011;10478;49.004;8.470;2024-02-21T03:34:29;6.78;;;1.85;;
20637;SDS011;10478;49.004;8.470;2024-02-21T03:36:54;12.65;;;3.10;;
20637;SDS011;10478;49.004;8.470;2024-02-21T03:39:20;4.57;;;2.10;;
20637;SDS011;10478;49.004;8.470;2024-02-21T03:41:46;7.35;;;2.88;;
20637;SDS011;10478;49.004;8.470;2024-02-21T03:44:11;5.30;;;2.60;;
20637;SDS011;10478;49.004;8.470;2024-02-21T03:46:37;2.90;;;1.88;;
20637;SDS011;10478;49.004;8.470;2024-02-21T03:49:02;9.60;;;2.42;;
20637;SDS011;10478;49.004;8.470;2024-02-21T03:51:27;7.75;;;2.53;;
20637;SDS011;10478;49.004;8.470;2024-02-21T03:53:53;8.15;;;2.45;;
20637;SDS011;10478;49.004;8.470;2024-02-21T03:56:18;11.23;;;2.90;;
20637;SDS011;10478;49.004;8.470;2024-02-21T03:58:43;7.80;;;2.72;;
20637;SDS011;10478;49.004;8.470;2024-02-21T04:01:08;10.07;;;2.42;;
20637;SDS011;10478;49.004;8.470;2024-02-21T04:03:34;6.63;;;2.42;;
20637;SDS011;10478;49.004;8.470;2024-02-21T04:05:59;4.82;;;2.58;;
20637;SDS011;10478;49.004;8.470;2024-02-21T04:08:25;10.40;;;2.40;;
20637;SDS011;10478;49.004;8.470;2024-02-21T04:10:51;8.73;;;2.28;;
20637;SDS011;10478;49.004;8.470;2024-02-21T04:13:16;7.93;;;2.58;;
20637;SDS011;10478;49.004;8.470;2024-02-21T04:15:41;8.02;;;2.55;;
20637;SDS011;10478;49.004;8.470;2024-02-21T04:18:07;4.78;;;2.45;;
20637;SDS011;10478;49.004;8.470;2024-02-21T04:20:32;10.80;;;2.85;;
20637;SDS011;10478;49.004;8.470;2024-02-21T04:22:57;5.60;;;2.15;;
20637;SDS011;10478;49.004;8.470;2024-02-21T04:25:23;10.45;;;3.08;;
20637;SDS011;10478;49.004;8.470;2024-02-21T04:27:48;5.32;;;2.33;;
20637;SDS011;10478;49.004;8.470;2024-02-21T04:30:13;8.48;;;2.58;;
20637;SDS011;10478;49.004;8.470;2024-02-21T04:32:39;12.40;;;2.63;;
20637;SDS011;10478;49.004;8.470;2024-02-21T04:35:05;11.95;;;2.83;;
20637;SDS011;10478;49.004;8.470;2024-02-21T04:37:30;8.25;;;2.63;;
20637;SDS011;10478;49.004;8.470;2024-02-21T04:39:56;7.43;;;2.65;;
20637;SDS011;10478;49.004;8.470;2024-02-21T04:42:21;8.30;;;3.55;;
20637;SDS011;10478;49.004;8.470;2024-02-21T04:44:46;6.20;;;2.78;;
20637;SDS011;10478;49.004;8.470;2024-02-21T04:47:12;6.70;;;3.47;;
20637;SDS011;10478;49.004;8.470;2024-02-21T04:49:38;12.05;;;2.83;;
20637;SDS011;10478;49.004;8.470;2024-02-21T04:52:03;9.70;;;2.55;;
20637;SDS011;10478;49.004;8.470;2024-02-21T04:54:29;5.55;;;2.78;;
20637;SDS011;10478;49.004;8.470;2024-02-21T04:56:54;9.55;;;2.75;;
20637;SDS011;10478;49.004;8.470;2024-02-21T04:59:19;6.95;;;2.63;;
20637;SDS011;10478;49.004;8.470;2024-02-21T05:01:44;8.95;;;2.67;;
20637;SDS011;10478;49.004;8.470;2024-02-21T05:04:10;4.28;;;2.55;;
20637;SDS011;10478;49.004;8.470;2024-02-21T05:06:41;7.07;;;2.30;;
20637;SDS011;10478;49.004;8.470;2024-02-21T05:09:07;7.05;;;2.78;;
20637;SDS011;10478;49.004;8.470;2024-02-21T05:11:36;7.70;;;3.80;;
20637;SDS011;10478;49.004;8.470;2024-02-21T05:14:02;6.13;;;2.75;;
20637;SDS011;10478;49.004;8.470;2024-02-21T05:16:28;7.13;;;2.30;;
20637;SDS011;10478;49.004;8.470;2024-02-21T05:18:54;5.95;;;2.33;;
20637;SDS011;10478;49.004;8.470;2024-02-21T05:21:19;9.65;;;2.80;;
20637;SDS011;10478;49.004;8.470;2024-02-21T05:23:44;5.65;;;2.55;;
20637;SDS011;10478;49.004;8.470;2024-02-21T05:26:10;7.57;;;2.20;;
20637;SDS011;10478;49.004;8.470;2024-02-21T05:28:35;6.40;;;2.65;;
20637;SDS011;10478;49.004;8.470;2024-02-21T05:31:00;4.07;;;2.42;;
20637;SDS011;10478;49.004;8.470;2024-02-21T05:33:26;7.20;;;2.10;;
20637;SDS011;10478;49.004;8.470;2024-02-21T05:35:51;9.23;;;2.47;;
20637;SDS011;10478;49.004;8.470;2024-02-21T05:38:16;35.53;;;15.80;;
20637;SDS011;10478;49.004;8.470;2024-02-21T05:40:42;16.45;;;7.68;;
20637;SDS011;10478;49.004;8.470;2024-02-21T05:43:09;21.05;;;10.57;;
20637;SDS011;10478;49.004;8.470;2024-02-21T05:45:34;14.32;;;4.78;;
20637;SDS011;10478;49.004;8.470;2024-02-21T05:48:00;33.42;;;15.55;;
20637;SDS011;10478;49.004;8.470;2024-02-21T05:50:25;13.25;;;6.82;;
20637;SDS011;10478;49.004;8.470;2024-02-21T05:52:52;9.60;;;4.05;;
20637;SDS011;10478;49.004;8.470;2024-02-21T05:55:19;10.15;;;3.33;;
20637;SDS011;10478;49.004;8.470;2024-02-21T05:57:44;9.48;;;2.67;;
20637;SDS011;10478;49.004;8.470;2024-02-21T06:00:09;4.93;;;2.10;;
20637;SDS011;10478;49.004;8.470;2024-02-21T06:02:35;5.70;;;2.00;;
20637;SDS011;10478;49.004;8.470;2024-02-21T06:05:00;6.78;;;2.55;;
20637;SDS011;10478;49.004;8.470;2024-02-21T06:07:26;9.43;;;2.88;;
20637;SDS011;10478;49.004;8.470;2024-02-21T06:09:51;4.80;;;2.33;;
20637;SDS011;10478;49.004;8.470;2024-02-21T06:12:16;9.55;;;3.03;;
20637;SDS011;10478;49.004;8.470;2024-02-21T06:14:41;7.60;;;2.67;;
20637;SDS011;10478;49.004;8.470;2024-02-21T06:17:07;8.48;;;3.25;;
20637;SDS011;10478;49.004;8.470;2024-02-21T06:19:32;8.25;;;3.47;;
20637;SDS011;10478;49.004;8.470;2024-02-21T06:21:57;7.38;;;2.80;;
20637;SDS011;10478;49.004;8.470;2024-02-21T06:24:23;11.00;;;3.22;;
20637;SDS011;10478;49.004;8.470;2024-02-21T06:26:48;10.65;;;3.70;;
20637;SDS011;10478;49.004;8.470;2024-02-21T06:29:13;8.73;;;3.53;;
20637;SDS011;10478;49.004;8.470;2024-02-21T06:31:40;5.65;;;2.60;;
20637;SDS011;10478;49.004;8.470;2024-02-21T06:34:05;30.75;;;16.77;;
20637;SDS011;10478;49.004;8.470;2024-02-21T06:36:30;61.38;;;28.15;;
20637;SDS011;10478;49.004;8.470;2024-02-21T06:38:56;29.88;;;13.43;;
20637;SDS011;10478;49.004;8.470;2024-02-21T06:41:21;9.93;;;4.63;;
20637;SDS011;10478;49.004;8.470;2024-02-21T06:43:46;4.72;;;2.65;;
20637;SDS011;10478;49.004;8.470;2024-02-21T06:46:12;5.70;;;2.33;;
20637;SDS011;10478;49.004;8.470;2024-02-21T06:48:50;3.92;;;2.10;;
20637;SDS011;10478;49.004;8.470;2024-02-21T06:51:15;9.32;;;2.78;;
20637;SDS011;10478;49.004;8.470;2024-02-21T06:53:41;5.47;;;2.58;;
20637;SDS011;10478;49.004;8.470;2024-02-21T06:56:06;10.30;;;2.72;;
20637;SDS011;10478;49.004;8.470;2024-02-21T06:58:32;9.38;;;2.28;;
20637;SDS011;10478;49.004;8.470;2024-02-21T07:00:57;3.47;;;2.13;;
20637;SDS011;10478;49.004;8.470;2024-02-21T07:03:22;3.42;;;2.08;;
20637;SDS011;10478;49.004;8.470;2024-02-21T07:05:49;8.32;;;2.75;;
20637;SDS011;10478;49.004;8.470;2024-02-21T07:08:14;8.45;;;2.55;;
20637;SDS011;10478;49.004;8.470;2024-02-21T07:10:40;8.35;;;2.55;;
20637;SDS011;10478;49.004;8.470;2024-02-21T07:13:05;7.22;;;2.15;;
20637;SDS011;10478;49.004;8.470;2024-02-21T07:15:31;8.27;;;2.75;;
20637;SDS011;10478;49.004;8.470;2024-02-21T07:17:57;6.07;;;2.28;;
20637;SDS011;10478;49.004;8.470;2024-02-21T07:20:23;9.07;;;2.15;;
20637;SDS011;10478;49.004;8.470;2024-02-21T07:22:48;5.57;;;2.10;;
20637;SDS011;10478;49.004;8.470;2024-02-21T07:25:14;4.28;;;2.30;;
20637;SDS011;10478;49.004;8.470;2024-02-21T07:27:39;5.82;;;2.45;;
20637;SDS011;10478;49.004;8.470;2024-02-21T07:30:06;5.95;;;2.80;;
20637;SDS011;10478;49.004;8.470;2024-02-21T07:32:31;10.40;;;2.53;;
20637;SDS011;10478;49.004;8.470;2024-02-21T07:34:56;14.25;;;3.92;;
20637;SDS011;10478;49.004;8.470;2024-02-21T07:37:22;9.30;;;3.83;;
20637;SDS011;10478;49.004;8.470;2024-02-21T07:39:47;6.72;;;3.20;;
20637;SDS011;10478;49.004;8.470;2024-02-21T07:42:12;7.43;;;2.60;;
20637;SDS011;10478;49.004;8.470;2024-02-21T07:44:38;7.45;;;2.50;;
20637;SDS011;10478;49.004;8.470;2024-02-21T07:47:03;6.95;;;2.50;;
20637;SDS011;10478;49.004;8.470;2024-02-21T07:49:28;6.50;;;2.55;;
20637;SDS011;10478;49.004;8.470;2024-02-21T07:51:54;10.55;;;3.95;;
20637;SDS011;10478;49.004;8.470;2024-02-21T07:54:19;6.90;;;2.83;;
20637;SDS011;10478;49.004;8.470;2024-02-21T07:56:44;10.55;;;2.47;;
20637;SDS011;10478;49.004;8.470;2024-02-21T07:59:10;6.13;;;2.28;;
20637;SDS011;10478;49.004;8.470;2024-02-21T08:01:35;13.02;;;2.65;;
20637;SDS011;10478;49.004;8.470;2024-02-21T08:04:00;6.95;;;3.00;;
20637;SDS011;10478;49.004;8.470;2024-02-21T08:06:27;10.68;;;3.00;;
20637;SDS011;10478;49.004;8.470;2024-02-21T08:08:52;10.25;;;2.90;;
20637;SDS011;10478;49.004;8.470;2024-02-21T08:11:18;11.77;;;2.97;;
20637;SDS011;10478;49.004;8.470;2024-02-21T08:13:43;6.68;;;3.17;;
20637;SDS011;10478;49.004;8.470;2024-02-21T08:16:08;10.18;;;2.53;;
20637;SDS011;10478;49.004;8.470;2024-02-21T08:18:34;8.35;;;2.53;;
20637;SDS011;10478;49.004;8.470;2024-02-21T08:21:03;9.50;;;2.25;;
20637;SDS011;10478;49.004;8.470;2024-02-21T08:23:28;10.15;;;3.08;;
20637;SDS011;10478;49.004;8.470;2024-02-21T08:25:54;6.47;;;2.00;;
20637;SDS011;10478;49.004;8.470;2024-02-21T08:28:19;7.93;;;2.50;;
20637;SDS011;10478;49.004;8.470;2024-02-21T08:30:45;3.88;;;2.15;;
20637;SDS011;10478;49.004;8.470;2024-02-21T08:33:13;7.07;;;2.45;;
20637;SDS011;10478;49.004;8.470;2024-02-21T08:35:40;7.97;;;3.10;;
20637;SDS011;10478;49.004;8.470;2024-02-21T08:38:05;7.90;;;2.00;;
20637;SDS011;10478;49.004;8.470;2024-02-21T08:40:30;7.85;;;2.70;;
20637;SDS011;10478;49.004;8.470;2024-02-21T08:42:56;5.10;;;2.78;;
20637;SDS011;10478;49.004;8.470;2024-02-21T08:45:21;11.35;;;2.78;;
20637;SDS011;10478;49.004;8.470;2024-02-21T08:47:46;8.45;;;2.75;;
20637;SDS011;10478;49.004;8.470;2024-02-21T08:50:12;10.88;;;2.28;;
20637;SDS011;10478;49.004;8.470;2024-02-21T08:52:37;4.13;;;2.25;;
20637;SDS011;10478;49.004;8.470;2024-02-21T08:55:02;7.80;;;2.55;;
20637;SDS011;10478;49.004;8.470;2024-02-21T08:57:28;6.00;;;2.75;;
20637;SDS011;10478;49.004;8.470;2024-02-21T08:59:54;8.50;;;2.97;;
20637;SDS011;10478;49.004;8.470;2024-02-21T09:02:19;4.45;;;2.08;;
20637;SDS011;10478;49.004;8.470;2024-02-21T09:04:47;7.97;;;2.92;;
20637;SDS011;10478;49.004;8.470;2024-02-21T09:07:13;18.70;;;9.07;;
20637;SDS011;10478;49.004;8.470;2024-02-21T09:09:38;6.72;;;3.60;;
20637;SDS011;10478;49.004;8.470;2024-02-21T09:12:05;7.07;;;3.03;;
20637;SDS011;10478;49.004;8.470;2024-02-21T09:14:36;10.40;;;3.58;;
20637;SDS011;10478;49.004;8.470;2024-02-21T09:17:03;12.82;;;3.20;;
20637;SDS011;10478;49.004;8.470;2024-02-21T09:19:28;4.38;;;2.88;;
20637;SDS011;10478;49.004;8.470;2024-02-21T09:21:54;6.97;;;2.83;;
20637;SDS011;10478;49.004;8.470;2024-02-21T09:24:20;10.40;;;3.13;;
20637;SDS011;10478;49.004;8.470;2024-02-21T09:26:45;8.18;;;2.90;;
20637;SDS011;10478;49.004;8.470;2024-02-21T09:29:11;8.90;;;2.67;;
20637;SDS011;10478;49.004;8.470;2024-02-21T09:31:36;7.68;;;3.28;;
20637;SDS011;10478;49.004;8.470;2024-02-21T09:34:03;8.43;;;2.63;;
20637;SDS011;10478;49.004;8.470;2024-02-21T09:36:29;6.10;;;2.88;;
20637;SDS011;10478;49.004;8.470;2024-02-21T09:38:55;6.45;;;2.83;;
20637;SDS011;10478;49.004;8.470;2024-02-21T09:41:25;6.95;;;3.03;;
20637;SDS011;10478;49.004;8.470;2024-02-21T09:43:52;7.20;;;2.60;;
20637;SDS011;10478;49.004;8.470;2024-02-21T09:46:25;9.35;;;2.53;;
20637;SDS011;10478;49.004;8.470;2024-02-21T09:49:13;8.10;;;3.33;;
20637;SDS011;10478;49.004;8.470;2024-02-21T09:51:43;7.45;;;2.78;;
20637;SDS011;10478;49.004;8.470;2024-02-21T09:54:08;5.95;;;2.33;;
20637;SDS011;10478;49.004;8.470;2024-02-21T09:56:34;5.75;;;3.13;;
20637;SDS011;10478;49.004;8.470;2024-02-21T09:58:59;11.70;;;3.33;;
20637;SDS011;10478;49.004;8.470;2024-02-21T10:01:29;6.47;;;2.67;;
20637;SDS011;10478;49.004;8.470;2024-02-21T10:03:56;4.53;;;2.28;;
20637;SDS011;10478;49.004;8.470;2024-02-21T10:06:22;7.03;;;3.38;;
20637;SDS011;10478;49.004;8.470;2024-02-21T10:08:53;6.40;;;3.28;;
20637;SDS011;10478;49.004;8.470;2024-02-21T10:11:23;5.57;;;2.25;;
20637;SDS011;10478;49.004;8.470;2024-02-21T10:13:49;7.22;;;2.72;;
20637;SDS011;10478;49.004;8.470;2024-02-21T10:16:14;5.53;;;2.40;;
20637;SDS011;10478;49.004;8.470;2024-02-21T10:18:40;6.50;;;2.42;;
20637;SDS011;10478;49.004;8.470;2024-02-21T10:21:06;8.15;;;2.58;;
20637;SDS011;10478;49.004;8.470;2024-02-21T10:23:45;7.03;;;2.38;;
20637;SDS011;10478;49.004;8.470;2024-02-21T10:26:12;5.72;;;2.38;;
20637;SDS011;10478;49.004;8.470;2024-02-21T10:28:37;9.57;;;2.65;;
20637;SDS011;10478;49.004;8.470;2024-02-21T10:31:11;8.15;;;2.65;;
20637;SDS011;10478;49.004;8.470;2024-02-21T10:33:37;6.97;;;2.50;;
20637;SDS011;10478;49.004;8.470;2024-02-21T10:36:09;5.85;;;2.38;;
20637;SDS011;10478;49.004;8.470;2024-02-21T10:38:38;4.45;;;2.08;;
20637;SDS011;10478;49.004;8.470;2024-02-21T10:41:07;6.90;;;2.00;;
20637;SDS011;10478;49.004;8.470;2024-02-21T10:43:33;10.63;;;2.38;;
20637;SDS011;10478;49.004;8.470;2024-02-21T10:46:05;8.68;;;2.47;;
20637;SDS011;10478;49.004;8.470;2024-02-21T10:48:33;4.13;;;2.30;;
20637;SDS011;10478;49.004;8.470;2024-02-21T10:51:10;10.98;;;2.95;;
20637;SDS011;10478;49.004;8.470;2024-02-21T10:56:33;7.85;;;2.33;;
20637;SDS011;10478;49.004;8.470;2024-02-21T10:59:02;10.85;;;1.85;;
20637;SDS011;10478;49.004;8.470;2024-02-21T11:01:29;5.97;;;2.28;;
20637;SDS011;10478;49.004;8.470;2024-02-21T11:03:56;5.32;;;2.25;;
20637;SDS011;10478;49.004;8.470;2024-02-21T11:06:23;7.18;;;2.15;;
20637;SDS011;10478;49.004;8.470;2024-02-21T11:09:02;9.07;;;1.90;;
20637;SDS011;10478;49.004;8.470;2024-02-21T11:11:29;8.57;;;2.13;;
20637;SDS011;10478;49.004;8.470;2024-02-21T11:14:05;9.73;;;2.22;;
20637;SDS011;10478;49.004;8.470;2024-02-21T11:16:34;6.47;;;1.98;;
20637;SDS011;10478;49.004;8.470;2024-02-21T11:19:04;5.50;;;1.83;;
20637;SDS011;10478;49.004;8.470;2024-02-21T11:21:50;3.88;;;1.50;;
20637;SDS011;10478;49.004;8.470;2024-02-21T11:24:25;7.10;;;1.65;;
20637;SDS011;10478;49.004;8.470;2024-02-21T11:26:54;3.35;;;1.80;;
20637;SDS011;10478;49.004;8.470;2024-02-21T11:29:23;4.47;;;2.17;;
20637;SDS011;10478;49.004;8.470;2024-02-21T11:31:55;8.00;;;1.38;;
20637;SDS011;10478;49.004;8.470;2024-02-21T11:34:20;5.13;;;1.75;;
20637;SDS011;10478;49.004;8.470;2024-02-21T11:36:46;8.85;;;3.30;;
20637;SDS011;10478;49.004;8.470;2024-02-21T11:39:13;10.05;;;2.15;;
20637;SDS011;10478;49.004;8.470;2024-02-21T11:41:44;2.80;;;1.58;;
20637;SDS011;10478;49.004;8.470;2024-02-21T11:44:09;3.53;;;1.10;;
20637;SDS011;10478;49.004;8.470;2024-02-21T11:46:34;2.63;;;1.50;;
20637;SDS011;10478;49.004;8.470;2024-02-21T11:49:00;3.08;;;1.65;;
20637;SDS011;10478;49.004;8.470;2024-02-21T11:51:28;4.38;;;1.40;;
20637;SDS011;10478;49.004;8.470;2024-02-21T11:53:53;7.22;;;1.48;;
20637;SDS011;10478;49.004;8.470;2024-02-21T11:56:19;6.97;;;1.38;;
20637;SDS011;10478;49.004;8.470;2024-02-21T11:58:48;4.93;;;1.67;;
20637;SDS011;10478;49.004;8.470;2024-02-21T12:01:14;7.40;;;2.03;;
20637;SDS011;10478;49.004;8.470;2024-02-21T12:03:41;3.38;;;1.45;;
20637;SDS011;10478;49.004;8.470;2024-02-21T12:06:07;5.18;;;1.30;;
20637;SDS011;10478;49.004;8.470;2024-02-21T12:08:42;5.57;;;1.50;;
20637;SDS011;10478;49.004;8.470;2024-02-21T12:11:21;6.13;;;1.40;;
20637;SDS011;10478;49.004;8.470;2024-02-21T12:13:47;3.17;;;1.20;;
20637;SDS011;10478;49.004;8.470;2024-02-21T12:16:24;5.15;;;1.25;;
20637;SDS011;10478;49.004;8.470;2024-02-21T12:18:50;3.00;;;1.20;;
20637;SDS011;10478;49.004;8.470;2024-02-21T12:21:18;8.48;;;1.85;;
20637;SDS011;10478;49.004;8.470;2024-02-21T12:23:43;2.17;;;1.27;;
20637;SDS011;10478;49.004;8.470;2024-02-21T12:26:08;5.82;;;1.23;;
20637;SDS011;10478;49.004;8.470;2024-02-21T12:28:34;6.10;;;1.25;;
20637;SDS011;10478;49.004;8.470;2024-02-21T12:30:59;4.55;;;1.15;;
20637;SDS011;10478;49.004;8.470;2024-02-21T12:33:24;2.25;;;1.45;;
20637;SDS011;10478;49.004;8.470;2024-02-21T12:35:49;8.63;;;1.48;;
20637;SDS011;10478;49.004;8.470;2024-02-21T12:38:15;3.58;;;1.58;;
20637;SDS011;10478;49.004;8.470;2024-02-21T12:40:40;8.52;;;1.60;;
20637;SDS011;10478;49.004;8.470;2024-02-21T12:43:06;6.35;;;1.95;;
20637;SDS011;10478;49.004;8.470;2024-02-21T12:45:31;4.45;;;0.95;;
20637;SDS011;10478;49.004;8.470;2024-02-21T12:47:57;6.25;;;1.40;;
20637;SDS011;10478;49.004;8.470;2024-02-21T12:50:22;3.88;;;1.45;;
20637;SDS011;10478;49.004;8.470;2024-02-21T12:52:48;3.22;;;1.25;;
20637;SDS011;10478;49.004;8.470;2024-02-21T12:55:14;8.20;;;1.70;;
20637;SDS011;10478;49.004;8.470;2024-02-21T12:57:41;4.25;;;1.30;;
20637;SDS011;10478;49.004;8.470;2024-02-21T13:00:06;4.40;;;1.60;;
20637;SDS011;10478;49.004;8.470;2024-02-21T13:02:34;7.28;;;1.33;;
20637;SDS011;10478;49.004;8.470;2024-02-21T13:04:59;3.65;;;1.25;;
20637;SDS011;10478;49.004;8.470;2024-02-21T13:07:25;5.68;;;2.00;;
20637;SDS011;10478;49.004;8.470;2024-02-21T13:09:51;3.38;;;1.10;;
20637;SDS011;10478;49.004;8.470;2024-02-21T13:12:16;6.32;;;1.48;;
20637;SDS011;10478;49.004;8.470;2024-02-21T13:14:41;7.07;;;1.40;;
20637;SDS011;10478;49.004;8.470;2024-02-21T13:17:08;6.47;;;1.58;;
20637;SDS011;10478;49.004;8.470;2024-02-21T13:19:34;2.85;;;0.80;;
20637;SDS011;10478;49.004;8.470;2024-02-21T13:21:59;5.45;;;1.23;;
20637;SDS011;10478;49.004;8.470;2024-02-21T13:24:25;3.75;;;1.30;;
20637;SDS011;10478;49.004;8.470;2024-02-21T13:26:50;5.18;;;1.40;;
20637;SDS011;10478;49.004;8.470;2024-02-21T13:29:15;5.32;;;2.05;;
20637;SDS011;10478;49.004;8.470;2024-02-21T13:31:41;3.15;;;1.45;;
20637;SDS011;10478;49.004;8.470;2024-02-21T13:34:06;7.15;;;1.50;;
20637;SDS011;10478;49.004;8.470;2024-02-21T13:36:33;4.47;;;1.45;;
20637;SDS011;10478;49.004;8.470;2024-02-21T13:38:59;4.93;;;1.17;;
20637;SDS011;10478;49.004;8.470;2024-02-21T13:41:24;2.35;;;0.98;;
20637;SDS011;10478;49.004;8.470;2024-02-21T13:43:49;5.10;;;1.50;;
20637;SDS011;10478;49.004;8.470;2024-02-21T13:46:15;5.03;;;1.13;;
20637;SDS011;10478;49.004;8.470;2024-02-21T13:48:40;4.43;;;1.38;;
20637;SDS011;10478;49.004;8.470;2024-02-21T13:51:06;3.67;;;2.25;;
20637;SDS011;10478;49.004;8.470;2024-02-21T13:53:31;5.50;;;1.42;;
20637;SDS011;10478;49.004;8.470;2024-02-21T13:55:56;3.88;;;1.48;;
20637;SDS011;10478;49.004;8.470;2024-02-21T13:58:22;2.72;;;1.27;;
20637;SDS011;10478;49.004;8.470;2024-02-21T14:00:47;3.38;;;1.15;;
20637;SDS011;10478;49.004;8.470;2024-02-21T14:03:12;7.22;;;2.15;;
20637;SDS011;10478;49.004;8.470;2024-02-21T14:05:38;7.30;;;1.90;;
20637;SDS011;10478;49.004;8.470;2024-02-21T14:08:05;8.13;;;1.67;;
20637;SDS011;10478;49.004;8.470;2024-02-21T14:10:31;4.35;;;1.85;;
20637;SDS011;10478;49.004;8.470;2024-02-21T14:12:56;6.72;;;1.58;;
20637;SDS011;10478;49.004;8.470;2024-02-21T14:15:22;4.82;;;1.45;;
20637;SDS011;10478;49.004;8.470;2024-02-21T14:17:47;2.20;;;1.33;;
20637;SDS011;10478;49.004;8.470;2024-02-21T14:20:12;6.78;;;1.83;;
20637;SDS011;10478;49.004;8.470;2024-02-21T14:22:39;4.47;;;1.35;;
20637;SDS011;10478;49.004;8.470;2024-02-21T14:25:04;6.63;;;1.73;;
20637;SDS011;10478;49.004;8.470;2024-02-21T14:27:30;6.53;;;1.25;;
20637;SDS011;10478;49.004;8.470;2024-02-21T14:29:56;4.82;;;1.42;;
20637;SDS011;10478;49.004;8.470;2024-02-21T14:32:21;4.50;;;1.40;;
20637;SDS011;10478;49.004;8.470;2024-02-21T14:34:46;5.50;;;1.77;;
20637;SDS011;10478;49.004;8.470;2024-02-21T14:37:11;2.22;;;1.10;;
20637;SDS011;10478;49.004;8.470;2024-02-21T14:39:37;6.70;;;1.38;;
20637;SDS011;10478;49.004;8.470;2024-02-21T14:42:02;4.13;;;2.00;;